sensor_id;sensor_type;location;lat;lon;timestamp;P1;durP1;ratioP1;P2;durP2;ratioP2
24745;SDS011;12845;52.042;6.838;2022-10-16T03:49:45;5.32;;;3.75;;
24745;SDS011;12845;52.042;6.838;2022-10-16T03:52:10;7.07;;;3.95;;
24745;SDS011;12845;52.042;6.838;2022-10-16T03:54:36;7.03;;;4.20;;
24745;SDS011;12845;52.042;6.838;2022-10-16T03:57:01;7.65;;;4.05;;
24745;SDS011;12845;52.042;6.838;2022-10-16T03:59:26;6.82;;;4.15;;
24745;SDS011;12845;52.042;6.838;2022-10-16T04:01:52;9.48;;;4.45;;
24745;SDS011;12845;52.042;6.838;2022-10-16T04:04:17;7.60;;;4.90;;
24745;SDS011;12845;52.042;6.838;2022-10-16T04:06:42;6.13;;;5.07;;
24745;SDS011;12845;52.042;6.838;2022-10-16T04:09:08;6.10;;;4.40;;
24745;SDS011;12845;52.042;6.838;2022-10-16T04:11:33;8.55;;;5.47;;
24745;SDS011;12845;52.042;6.838;2022-10-16T04:13:59;8.68;;;5.40;;
24745;SDS011;12845;52.042;6.838;2022-10-16T04:16:24;7.05;;;5.30;;
24745;SDS011;12845;52.042;6.838;2022-10-16T04:18:49;7.68;;;5.72;;
24745;SDS011;12845;52.042;6.838;2022-10-16T04:21:15;8.18;;;4.95;;
24745;SDS011;12845;52.042;6.838;2022-10-16T04:23:41;8.57;;;5.22;;
24745;SDS011;12845;52.042;6.838;2022-10-16T04:26:06;7.47;;;4.40;;
24745;SDS011;12845;52.042;6.838;2022-10-16T04:28:32;7.90;;;4.57;;
24745;SDS011;12845;52.042;6.838;2022-10-16T04:30:57;7.43;;;5.13;;
24745;SDS011;12845;52.042;6.838;2022-10-16T04:33:22;8.73;;;5.57;;
24745;SDS011;12845;52.042;6.838;2022-10-16T04:35:48;7.80;;;4.82;;
24745;SDS011;12845;52.042;6.838;2022-10-16T04:38:13;7.85;;;5.07;;
24745;SDS011;12845;52.042;6.838;2022-10-16T04:40:38;8.32;;;4.60;;
24745;SDS011;12845;52.042;6.838;2022-10-16T04:43:04;7.78;;;5.10;;
24745;SDS011;12845;52.042;6.838;2022-10-16T04:45:30;6.15;;;4.13;;
24745;SDS011;12845;52.042;6.838;2022-10-16T04:47:59;6.15;;;4.50;;
24745;SDS011;12845;52.042;6.838;2022-10-16T04:50:24;5.93;;;3.90;;
24745;SDS011;12845;52.042;6.838;2022-10-16T04:52:50;7.28;;;4.20;;
24745;SDS011;12845;52.042;6.838;2022-10-16T04:55:15;6.75;;;4.10;;
24745;SDS011;12845;52.042;6.838;2022-10-16T04:57:41;6.55;;;3.67;;
24745;SDS011;12845;52.042;6.838;2022-10-16T05:00:06;7.95;;;3.90;;
24745;SDS011;12845;52.042;6.838;2022-10-16T05:02:33;5.57;;;3.80;;
24745;SDS011;12845;52.042;6.838;2022-10-16T05:04:58;7.40;;;3.60;;
24745;SDS011;12845;52.042;6.838;2022-10-16T05:07:24;6.10;;;3.50;;
24745;SDS011;12845;52.042;6.838;2022-10-16T05:09:49;6.40;;;3.25;;
24745;SDS011;12845;52.042;6.838;2022-10-16T05:12:14;6.40;;;3.95;;
24745;SDS011;12845;52.042;6.838;2022-10-16T05:14:40;5.57;;;3.63;;
24745;SDS011;12845;52.042;6.838;2022-10-16T05:17:05;5.43;;;3.70;;
24745;SDS011;12845;52.042;6.838;2022-10-16T05:19:31;5.35;;;3.22;;
24745;SDS011;12845;52.042;6.838;2022-10-16T05:21:56;5.63;;;3.40;;
24745;SDS011;12845;52.042;6.838;2022-10-16T05:24:21;6.25;;;3.30;;
24745;SDS011;12845;52.042;6.838;2022-10-16T05:26:46;8.50;;;3.67;;
24745;SDS011;12845;52.042;6.838;2022-10-16T05:29:12;6.70;;;3.40;;
24745;SDS011;12845;52.042;6.838;2022-10-16T05:31:37;5.63;;;3.53;;
24745;SDS011;12845;52.042;6.838;2022-10-16T05:34:02;5.20;;;3.35;;
24745;SDS011;12845;52.042;6.838;2022-10-16T05:36:28;7.72;;;3.42;;
24745;SDS011;12845;52.042;6.838;2022-10-16T05:38:53;4.05;;;3.28;;
24745;SDS011;12845;52.042;6.838;2022-10-16T05:41:18;8.07;;;3.15;;
24745;SDS011;12845;52.042;6.838;2022-10-16T05:43:50;5.45;;;2.97;;
24745;SDS011;12845;52.042;6.838;2022-10-16T05:46:15;6.47;;;3.60;;
24745;SDS011;12845;52.042;6.838;2022-10-16T05:48:41;6.38;;;3.25;;
24745;SDS011;12845;52.042;6.838;2022-10-16T05:51:07;7.30;;;3.50;;
24745;SDS011;12845;52.042;6.838;2022-10-16T05:53:36;5.45;;;3.25;;
24745;SDS011;12845;52.042;6.838;2022-10-16T05:56:03;4.57;;;3.13;;
24745;SDS011;12845;52.042;6.838;2022-10-16T05:58:32;5.90;;;3.47;;
24745;SDS011;12845;52.042;6.838;2022-10-16T06:01:04;5.97;;;3.85;;
24745;SDS011;12845;52.042;6.838;2022-10-16T06:03:32;7.53;;;3.50;;
24745;SDS011;12845;52.042;6.838;2022-10-16T06:05:57;5.45;;;3.10;;
24745;SDS011;12845;52.042;6.838;2022-10-16T06:08:23;6.45;;;3.70;;
24745;SDS011;12845;52.042;6.838;2022-10-16T06:10:49;6.93;;;4.15;;
24745;SDS011;12845;52.042;6.838;2022-10-16T06:13:25;8.23;;;3.65;;
24745;SDS011;12845;52.042;6.838;2022-10-16T06:15:50;8.05;;;4.32;;
24745;SDS011;12845;52.042;6.838;2022-10-16T06:18:16;6.15;;;4.18;;
24745;SDS011;12845;52.042;6.838;2022-10-16T06:20:41;6.35;;;3.70;;
24745;SDS011;12845;52.042;6.838;2022-10-16T06:23:06;9.02;;;3.72;;
24745;SDS011;12845;52.042;6.838;2022-10-16T06:25:32;5.65;;;3.47;;
24745;SDS011;12845;52.042;6.838;2022-10-16T06:27:57;7.15;;;3.70;;
24745;SDS011;12845;52.042;6.838;2022-10-16T06:30:22;7.78;;;3.53;;
24745;SDS011;12845;52.042;6.838;2022-10-16T06:32:48;8.63;;;3.65;;
24745;SDS011;12845;52.042;6.838;2022-10-16T06:35:13;8.55;;;4.35;;
24745;SDS011;12845;52.042;6.838;2022-10-16T06:37:38;11.27;;;4.05;;
24745;SDS011;12845;52.042;6.838;2022-10-16T06:40:04;8.80;;;4.53;;
24745;SDS011;12845;52.042;6.838;2022-10-16T06:42:29;6.38;;;3.75;;
24745;SDS011;12845;52.042;6.838;2022-10-16T06:44:55;5.45;;;3.78;;
24745;SDS011;12845;52.042;6.838;2022-10-16T06:47:20;5.55;;;3.20;;
24745;SDS011;12845;52.042;6.838;2022-10-16T06:49:45;4.57;;;3.25;;
24745;SDS011;12845;52.042;6.838;2022-10-16T06:52:11;8.07;;;3.60;;
24745;SDS011;12845;52.042;6.838;2022-10-16T06:54:36;5.80;;;3.13;;
24745;SDS011;12845;52.042;6.838;2022-10-16T06:57:01;4.72;;;3.05;;
24745;SDS011;12845;52.042;6.838;2022-10-16T06:59:27;6.22;;;3.50;;
24745;SDS011;12845;52.042;6.838;2022-10-16T07:01:52;5.68;;;3.13;;
24745;SDS011;12845;52.042;6.838;2022-10-16T07:04:18;6.00;;;4.03;;
24745;SDS011;12845;52.042;6.838;2022-10-16T07:06:43;8.00;;;3.90;;
24745;SDS011;12845;52.042;6.838;2022-10-16T07:09:09;5.95;;;3.80;;
24745;SDS011;12845;52.042;6.838;2022-10-16T07:11:36;5.68;;;3.97;;
24745;SDS011;12845;52.042;6.838;2022-10-16T07:14:02;7.18;;;4.40;;
24745;SDS011;12845;52.042;6.838;2022-10-16T07:16:29;7.30;;;3.85;;
24745;SDS011;12845;52.042;6.838;2022-10-16T07:18:57;6.00;;;3.42;;
24745;SDS011;12845;52.042;6.838;2022-10-16T07:21:25;6.57;;;3.63;;
24745;SDS011;12845;52.042;6.838;2022-10-16T07:23:52;5.75;;;3.70;;
24745;SDS011;12845;52.042;6.838;2022-10-16T07:26:17;8.10;;;4.20;;
24745;SDS011;12845;52.042;6.838;2022-10-16T07:28:43;6.88;;;3.88;;
24745;SDS011;12845;52.042;6.838;2022-10-16T07:31:15;8.07;;;3.53;;
24745;SDS011;12845;52.042;6.838;2022-10-16T07:33:42;5.22;;;2.95;;
24745;SDS011;12845;52.042;6.838;2022-10-16T07:36:09;6.07;;;3.10;;
24745;SDS011;12845;52.042;6.838;2022-10-16T07:38:34;5.85;;;3.28;;
24745;SDS011;12845;52.042;6.838;2022-10-16T07:41:01;6.30;;;3.05;;
24745;SDS011;12845;52.042;6.838;2022-10-16T07:43:31;6.30;;;3.38;;
24745;SDS011;12845;52.042;6.838;2022-10-16T07:45:56;4.97;;;3.42;;
24745;SDS011;12845;52.042;6.838;2022-10-16T07:48:22;7.07;;;3.25;;
24745;SDS011;12845;52.042;6.838;2022-10-16T07:50:48;8.95;;;3.60;;
24745;SDS011;12845;52.042;6.838;2022-10-16T07:53:14;6.78;;;3.63;;
24745;SDS011;12845;52.042;6.838;2022-10-16T07:55:39;6.75;;;3.47;;
24745;SDS011;12845;52.042;6.838;2022-10-16T07:58:05;5.22;;;2.83;;
24745;SDS011;12845;52.042;6.838;2022-10-16T08:00:32;5.70;;;3.33;;
24745;SDS011;12845;52.042;6.838;2022-10-16T08:02:57;4.07;;;2.40;;
24745;SDS011;12845;52.042;6.838;2022-10-16T08:05:27;5.65;;;3.05;;
24745;SDS011;12845;52.042;6.838;2022-10-16T08:07:52;5.07;;;2.70;;
24745;SDS011;12845;52.042;6.838;2022-10-16T08:10:18;6.03;;;2.70;;
24745;SDS011;12845;52.042;6.838;2022-10-16T08:12:47;8.23;;;3.10;;
24745;SDS011;12845;52.042;6.838;2022-10-16T08:15:12;6.38;;;2.85;;
24745;SDS011;12845;52.042;6.838;2022-10-16T08:17:37;8.55;;;3.58;;
24745;SDS011;12845;52.042;6.838;2022-10-16T08:20:03;3.30;;;2.20;;
24745;SDS011;12845;52.042;6.838;2022-10-16T08:22:29;4.55;;;1.83;;
24745;SDS011;12845;52.042;6.838;2022-10-16T08:24:54;4.22;;;2.33;;
24745;SDS011;12845;52.042;6.838;2022-10-16T08:27:20;4.72;;;2.20;;
24745;SDS011;12845;52.042;6.838;2022-10-16T08:29:45;4.03;;;2.15;;
24745;SDS011;12845;52.042;6.838;2022-10-16T08:32:10;6.75;;;2.42;;
24745;SDS011;12845;52.042;6.838;2022-10-16T08:34:36;4.90;;;1.95;;
24745;SDS011;12845;52.042;6.838;2022-10-16T08:37:01;4.63;;;1.83;;
24745;SDS011;12845;52.042;6.838;2022-10-16T08:39:27;5.00;;;2.15;;
24745;SDS011;12845;52.042;6.838;2022-10-16T08:42:12;4.18;;;1.88;;
24745;SDS011;12845;52.042;6.838;2022-10-16T08:50:08;5.25;;;1.70;;
24745;SDS011;12845;52.042;6.838;2022-10-16T08:52:58;4.47;;;1.58;;
24745;SDS011;12845;52.042;6.838;2022-10-16T08:58:38;6.25;;;1.77;;
24745;SDS011;12845;52.042;6.838;2022-10-16T09:01:44;7.40;;;2.00;;
24745;SDS011;12845;52.042;6.838;2022-10-16T09:08:00;4.85;;;2.13;;
24745;SDS011;12845;52.042;6.838;2022-10-16T09:11:19;6.18;;;2.90;;
24745;SDS011;12845;52.042;6.838;2022-10-16T09:16:46;7.32;;;2.92;;
24745;SDS011;12845;52.042;6.838;2022-10-16T09:19:28;5.78;;;2.92;;
24745;SDS011;12845;52.042;6.838;2022-10-16T09:22:15;7.40;;;3.95;;
24745;SDS011;12845;52.042;6.838;2022-10-16T09:24:42;7.97;;;4.25;;
24745;SDS011;12845;52.042;6.838;2022-10-16T09:27:09;11.35;;;5.78;;
24745;SDS011;12845;52.042;6.838;2022-10-16T09:29:35;12.57;;;6.30;;
24745;SDS011;12845;52.042;6.838;2022-10-16T09:32:07;16.45;;;7.53;;
24745;SDS011;12845;52.042;6.838;2022-10-16T09:34:50;14.55;;;7.80;;
24745;SDS011;12845;52.042;6.838;2022-10-16T09:37:20;15.32;;;8.85;;
24745;SDS011;12845;52.042;6.838;2022-10-16T09:39:53;14.38;;;8.23;;
24745;SDS011;12845;52.042;6.838;2022-10-16T09:42:20;14.93;;;8.38;;
24745;SDS011;12845;52.042;6.838;2022-10-16T09:44:57;11.90;;;8.02;;
24745;SDS011;12845;52.042;6.838;2022-10-16T09:47:23;19.40;;;8.15;;
24745;SDS011;12845;52.042;6.838;2022-10-16T09:49:53;12.05;;;7.10;;
24745;SDS011;12845;52.042;6.838;2022-10-16T09:52:30;14.20;;;7.45;;
24745;SDS011;12845;52.042;6.838;2022-10-16T09:54:57;9.27;;;6.47;;
24745;SDS011;12845;52.042;6.838;2022-10-16T09:57:24;10.20;;;5.53;;
24745;SDS011;12845;52.042;6.838;2022-10-16T09:59:51;9.35;;;5.68;;
24745;SDS011;12845;52.042;6.838;2022-10-16T10:02:17;10.88;;;5.88;;
24745;SDS011;12845;52.042;6.838;2022-10-16T10:04:49;7.77;;;4.80;;
24745;SDS011;12845;52.042;6.838;2022-10-16T10:07:17;7.65;;;5.07;;
24745;SDS011;12845;52.042;6.838;2022-10-16T10:09:48;8.63;;;4.85;;
24745;SDS011;12845;52.042;6.838;2022-10-16T10:12:24;8.55;;;5.00;;
24745;SDS011;12845;52.042;6.838;2022-10-16T10:14:50;6.95;;;3.90;;
24745;SDS011;12845;52.042;6.838;2022-10-16T10:17:19;9.63;;;4.20;;
24745;SDS011;12845;52.042;6.838;2022-10-16T10:29:52;8.18;;;3.03;;
24745;SDS011;12845;52.042;6.838;2022-10-16T10:37:35;8.10;;;3.63;;
24745;SDS011;12845;52.042;6.838;2022-10-16T10:40:22;6.78;;;2.88;;
24745;SDS011;12845;52.042;6.838;2022-10-16T10:46:00;6.88;;;2.88;;
24745;SDS011;12845;52.042;6.838;2022-10-16T10:51:08;8.25;;;2.17;;
24745;SDS011;12845;52.042;6.838;2022-10-16T10:56:10;6.80;;;2.25;;
24745;SDS011;12845;52.042;6.838;2022-10-16T11:07:15;5.45;;;1.95;;
24745;SDS011;12845;52.042;6.838;2022-10-16T11:09:57;8.60;;;2.10;;
24745;SDS011;12845;52.042;6.838;2022-10-16T11:12:31;7.95;;;2.35;;
24745;SDS011;12845;52.042;6.838;2022-10-16T11:21:10;6.47;;;2.22;;
24745;SDS011;12845;52.042;6.838;2022-10-16T11:26:02;9.20;;;2.27;;
24745;SDS011;12845;52.042;6.838;2022-10-16T11:28:36;8.65;;;2.28;;
24745;SDS011;12845;52.042;6.838;2022-10-16T11:31:15;6.90;;;2.08;;
24745;SDS011;12845;52.042;6.838;2022-10-16T11:36:59;9.38;;;1.80;;
24745;SDS011;12845;52.042;6.838;2022-10-16T11:39:30;8.63;;;1.92;;
24745;SDS011;12845;52.042;6.838;2022-10-16T11:42:10;4.70;;;1.88;;
24745;SDS011;12845;52.042;6.838;2022-10-16T11:47:43;7.88;;;2.05;;
24745;SDS011;12845;52.042;6.838;2022-10-16T11:55:44;7.65;;;1.95;;
24745;SDS011;12845;52.042;6.838;2022-10-16T12:00:53;6.57;;;2.00;;
24745;SDS011;12845;52.042;6.838;2022-10-16T12:06:53;5.63;;;1.97;;
24745;SDS011;12845;52.042;6.838;2022-10-16T12:08:58;11.85;;;1.90;;
24745;SDS011;12845;52.042;6.838;2022-10-16T12:19:26;5.30;;;1.63;;
24745;SDS011;12845;52.042;6.838;2022-10-16T12:21:54;8.23;;;1.58;;
24745;SDS011;12845;52.042;6.838;2022-10-16T12:26:54;8.82;;;1.67;;
24745;SDS011;12845;52.042;6.838;2022-10-16T12:31:46;6.40;;;1.65;;
24745;SDS011;12845;52.042;6.838;2022-10-16T12:34:14;7.85;;;1.65;;
24745;SDS011;12845;52.042;6.838;2022-10-16T12:37:21;8.13;;;1.30;;
24745;SDS011;12845;52.042;6.838;2022-10-16T12:39:49;5.60;;;1.40;;
24745;SDS011;12845;52.042;6.838;2022-10-16T12:44:47;7.57;;;1.85;;
24745;SDS011;12845;52.042;6.838;2022-10-16T12:47:23;8.68;;;2.15;;
24745;SDS011;12845;52.042;6.838;2022-10-16T12:49:52;7.80;;;1.80;;
24745;SDS011;12845;52.042;6.838;2022-10-16T12:55:00;8.65;;;1.70;;
24745;SDS011;12845;52.042;6.838;2022-10-16T12:57:41;7.05;;;1.73;;
24745;SDS011;12845;52.042;6.838;2022-10-16T13:03:27;5.57;;;1.73;;
24745;SDS011;12845;52.042;6.838;2022-10-16T13:06:28;6.03;;;1.20;;
24745;SDS011;12845;52.042;6.838;2022-10-16T13:17:27;5.85;;;1.70;;
24745;SDS011;12845;52.042;6.838;2022-10-16T13:20:22;10.93;;;1.80;;
24745;SDS011;12845;52.042;6.838;2022-10-16T13:28:13;7.75;;;1.48;;
24745;SDS011;12845;52.042;6.838;2022-10-16T13:31:00;6.80;;;1.55;;
24745;SDS011;12845;52.042;6.838;2022-10-16T13:33:55;10.98;;;1.98;;
24745;SDS011;12845;52.042;6.838;2022-10-16T13:39:20;7.43;;;1.63;;
24745;SDS011;12845;52.042;6.838;2022-10-16T13:44:43;10.63;;;1.88;;
24745;SDS011;12845;52.042;6.838;2022-10-16T13:52:20;10.73;;;1.80;;
24745;SDS011;12845;52.042;6.838;2022-10-16T13:54:46;8.05;;;2.28;;
24745;SDS011;12845;52.042;6.838;2022-10-16T13:57:13;7.30;;;2.30;;
24745;SDS011;12845;52.042;6.838;2022-10-16T13:59:40;10.98;;;3.17;;
24745;SDS011;12845;52.042;6.838;2022-10-16T14:02:18;7.68;;;1.95;;
24745;SDS011;12845;52.042;6.838;2022-10-16T14:04:45;5.22;;;1.90;;
24745;SDS011;12845;52.042;6.838;2022-10-16T14:07:18;8.10;;;1.50;;
24745;SDS011;12845;52.042;6.838;2022-10-16T14:09:48;6.18;;;1.75;;
24745;SDS011;12845;52.042;6.838;2022-10-16T14:12:15;5.35;;;1.60;;
24745;SDS011;12845;52.042;6.838;2022-10-16T14:14:42;5.82;;;1.30;;
24745;SDS011;12845;52.042;6.838;2022-10-16T14:17:20;8.70;;;1.75;;
24745;SDS011;12845;52.042;6.838;2022-10-16T14:19:48;7.75;;;1.42;;
24745;SDS011;12845;52.042;6.838;2022-10-16T14:24:51;11.10;;;1.60;;
24745;SDS011;12845;52.042;6.838;2022-10-16T14:27:33;6.55;;;1.70;;
24745;SDS011;12845;52.042;6.838;2022-10-16T14:30:18;7.35;;;1.80;;
24745;SDS011;12845;52.042;6.838;2022-10-16T14:32:59;5.00;;;1.42;;
24745;SDS011;12845;52.042;6.838;2022-10-16T14:35:29;7.40;;;1.58;;
24745;SDS011;12845;52.042;6.838;2022-10-16T14:37:59;4.90;;;1.67;;
24745;SDS011;12845;52.042;6.838;2022-10-16T14:40:27;4.63;;;1.17;;
24745;SDS011;12845;52.042;6.838;2022-10-16T14:42:58;5.50;;;1.20;;
24745;SDS011;12845;52.042;6.838;2022-10-16T14:45:27;7.80;;;1.55;;
24745;SDS011;12845;52.042;6.838;2022-10-16T14:50:23;8.90;;;1.60;;
24745;SDS011;12845;52.042;6.838;2022-10-16T14:52:49;6.57;;;1.63;;
24745;SDS011;12845;52.042;6.838;2022-10-16T14:55:15;7.43;;;1.42;;
24745;SDS011;12845;52.042;6.838;2022-10-16T14:57:42;9.15;;;1.50;;
24745;SDS011;12845;52.042;6.838;2022-10-16T15:00:13;6.80;;;1.60;;
24745;SDS011;12845;52.042;6.838;2022-10-16T15:02:41;5.00;;;1.25;;
24745;SDS011;12845;52.042;6.838;2022-10-16T15:05:11;7.25;;;1.33;;
24745;SDS011;12845;52.042;6.838;2022-10-16T15:08:03;7.70;;;1.25;;
24745;SDS011;12845;52.042;6.838;2022-10-16T15:10:29;6.18;;;1.20;;
24745;SDS011;12845;52.042;6.838;2022-10-16T15:12:57;7.20;;;1.63;;
24745;SDS011;12845;52.042;6.838;2022-10-16T15:17:52;5.20;;;1.33;;
24745;SDS011;12845;52.042;6.838;2022-10-16T15:20:21;7.75;;;1.88;;
24745;SDS011;12845;52.042;6.838;2022-10-16T15:44:42;10.57;;;2.55;;
24745;SDS011;12845;52.042;6.838;2022-10-16T15:47:32;7.20;;;1.75;;
24745;SDS011;12845;52.042;6.838;2022-10-16T15:53:20;8.20;;;2.17;;
24745;SDS011;12845;52.042;6.838;2022-10-16T15:55:46;6.93;;;1.80;;
24745;SDS011;12845;52.042;6.838;2022-10-16T15:58:11;6.45;;;2.05;;
24745;SDS011;12845;52.042;6.838;2022-10-16T16:00:37;7.10;;;1.85;;
24745;SDS011;12845;52.042;6.838;2022-10-16T16:03:03;5.90;;;1.65;;
24745;SDS011;12845;52.042;6.838;2022-10-16T16:05:28;11.52;;;1.75;;
24745;SDS011;12845;52.042;6.838;2022-10-16T16:07:54;8.98;;;2.30;;
24745;SDS011;12845;52.042;6.838;2022-10-16T16:10:19;13.23;;;2.45;;
24745;SDS011;12845;52.042;6.838;2022-10-16T16:12:48;8.60;;;2.25;;
24745;SDS011;12845;52.042;6.838;2022-10-16T16:15:17;8.32;;;2.28;;
24745;SDS011;12845;52.042;6.838;2022-10-16T16:17:43;9.38;;;2.80;;
24745;SDS011;12845;52.042;6.838;2022-10-16T16:20:09;9.90;;;2.53;;
24745;SDS011;12845;52.042;6.838;2022-10-16T16:22:35;10.27;;;2.65;;
24745;SDS011;12845;52.042;6.838;2022-10-16T16:25:00;7.32;;;2.65;;
24745;SDS011;12845;52.042;6.838;2022-10-16T16:27:26;9.85;;;2.90;;
24745;SDS011;12845;52.042;6.838;2022-10-16T16:29:53;11.20;;;3.25;;
24745;SDS011;12845;52.042;6.838;2022-10-16T16:32:20;5.28;;;2.90;;
24745;SDS011;12845;52.042;6.838;2022-10-16T16:34:45;6.68;;;2.42;;
24745;SDS011;12845;52.042;6.838;2022-10-16T16:37:10;10.57;;;2.95;;
24745;SDS011;12845;52.042;6.838;2022-10-16T16:39:36;8.05;;;2.70;;
24745;SDS011;12845;52.042;6.838;2022-10-16T16:42:01;6.90;;;2.80;;
24745;SDS011;12845;52.042;6.838;2022-10-16T16:44:28;9.15;;;3.45;;
24745;SDS011;12845;52.042;6.838;2022-10-16T16:46:54;7.50;;;2.42;;
24745;SDS011;12845;52.042;6.838;2022-10-16T16:49:20;7.07;;;2.20;;
24745;SDS011;12845;52.042;6.838;2022-10-16T16:51:45;9.93;;;2.67;;
24745;SDS011;12845;52.042;6.838;2022-10-16T16:54:11;6.82;;;2.78;;
24745;SDS011;12845;52.042;6.838;2022-10-16T16:56:37;8.88;;;2.55;;
24745;SDS011;12845;52.042;6.838;2022-10-16T16:59:03;7.32;;;2.60;;
24745;SDS011;12845;52.042;6.838;2022-10-16T17:01:29;9.68;;;3.08;;
24745;SDS011;12845;52.042;6.838;2022-10-16T17:03:56;9.30;;;3.60;;
24745;SDS011;12845;52.042;6.838;2022-10-16T17:06:26;9.10;;;3.63;;
24745;SDS011;12845;52.042;6.838;2022-10-16T17:08:54;9.55;;;3.47;;
24745;SDS011;12845;52.042;6.838;2022-10-16T17:11:21;12.88;;;4.60;;
24745;SDS011;12845;52.042;6.838;2022-10-16T17:13:48;6.97;;;4.28;;
24745;SDS011;12845;52.042;6.838;2022-10-16T17:16:16;16.48;;;7.68;;
24745;SDS011;12845;52.042;6.838;2022-10-16T17:18:45;19.23;;;7.05;;
24745;SDS011;12845;52.042;6.838;2022-10-16T17:21:10;13.05;;;5.85;;
24745;SDS011;12845;52.042;6.838;2022-10-16T17:23:36;12.25;;;6.60;;
24745;SDS011;12845;52.042;6.838;2022-10-16T17:26:03;14.73;;;5.57;;
24745;SDS011;12845;52.042;6.838;2022-10-16T17:28:33;14.63;;;4.97;;
24745;SDS011;12845;52.042;6.838;2022-10-16T17:31:12;11.80;;;5.45;;
24745;SDS011;12845;52.042;6.838;2022-10-16T17:33:38;10.27;;;4.45;;
24745;SDS011;12845;52.042;6.838;2022-10-16T17:36:03;12.45;;;4.40;;
24745;SDS011;12845;52.042;6.838;2022-10-16T17:38:29;10.68;;;4.25;;
24745;SDS011;12845;52.042;6.838;2022-10-16T17:40:55;9.80;;;4.40;;
24745;SDS011;12845;52.042;6.838;2022-10-16T17:43:20;11.80;;;5.82;;
24745;SDS011;12845;52.042;6.838;2022-10-16T17:45:45;13.48;;;5.55;;
24745;SDS011;12845;52.042;6.838;2022-10-16T17:48:11;16.95;;;7.60;;
24745;SDS011;12845;52.042;6.838;2022-10-16T17:50:40;11.80;;;5.30;;
24745;SDS011;12845;52.042;6.838;2022-10-16T17:53:06;10.77;;;4.30;;
24745;SDS011;12845;52.042;6.838;2022-10-16T17:55:36;11.70;;;6.43;;
24745;SDS011;12845;52.042;6.838;2022-10-16T17:58:05;15.52;;;8.52;;
24745;SDS011;12845;52.042;6.838;2022-10-16T18:00:31;9.68;;;6.93;;
24745;SDS011;12845;52.042;6.838;2022-10-16T18:02:56;15.35;;;6.82;;
24745;SDS011;12845;52.042;6.838;2022-10-16T18:05:22;11.63;;;6.63;;
24745;SDS011;12845;52.042;6.838;2022-10-16T18:07:48;9.82;;;5.97;;
24745;SDS011;12845;52.042;6.838;2022-10-16T18:10:13;9.68;;;4.40;;
24745;SDS011;12845;52.042;6.838;2022-10-16T18:12:38;11.30;;;5.13;;
24745;SDS011;12845;52.042;6.838;2022-10-16T18:15:06;9.30;;;5.07;;
24745;SDS011;12845;52.042;6.838;2022-10-16T18:17:34;8.77;;;5.10;;
24745;SDS011;12845;52.042;6.838;2022-10-16T18:20:01;11.15;;;4.65;;
24745;SDS011;12845;52.042;6.838;2022-10-16T18:22:31;10.75;;;4.60;;
24745;SDS011;12845;52.042;6.838;2022-10-16T18:27:29;10.80;;;5.03;;
24745;SDS011;12845;52.042;6.838;2022-10-16T18:29:56;19.77;;;11.60;;
24745;SDS011;12845;52.042;6.838;2022-10-16T18:32:22;34.38;;;27.38;;
24745;SDS011;12845;52.042;6.838;2022-10-16T18:34:48;34.67;;;24.95;;
24745;SDS011;12845;52.042;6.838;2022-10-16T18:37:13;40.65;;;26.65;;
24745;SDS011;12845;52.042;6.838;2022-10-16T18:39:45;13.40;;;9.55;;
24745;SDS011;12845;52.042;6.838;2022-10-16T18:42:12;13.48;;;6.80;;
24745;SDS011;12845;52.042;6.838;2022-10-16T18:44:38;12.98;;;6.53;;
24745;SDS011;12845;52.042;6.838;2022-10-16T18:47:03;14.45;;;6.20;;
24745;SDS011;12845;52.042;6.838;2022-10-16T18:49:28;12.43;;;6.15;;
24745;SDS011;12845;52.042;6.838;2022-10-16T18:51:54;16.10;;;6.53;;
24745;SDS011;12845;52.042;6.838;2022-10-16T18:54:24;13.98;;;6.13;;
24745;SDS011;12845;52.042;6.838;2022-10-16T18:56:51;11.98;;;5.80;;
24745;SDS011;12845;52.042;6.838;2022-10-16T18:59:17;13.32;;;5.53;;
24745;SDS011;12845;52.042;6.838;2022-10-16T19:01:42;11.25;;;5.15;;
24745;SDS011;12845;52.042;6.838;2022-10-16T19:04:09;17.40;;;4.80;;
24745;SDS011;12845;52.042;6.838;2022-10-16T19:06:37;7.63;;;4.30;;
24745;SDS011;12845;52.042;6.838;2022-10-16T19:09:05;11.68;;;5.63;;
24745;SDS011;12845;52.042;6.838;2022-10-16T19:11:30;15.00;;;9.88;;
24745;SDS011;12845;52.042;6.838;2022-10-16T19:13:56;39.70;;;27.73;;
24745;SDS011;12845;52.042;6.838;2022-10-16T19:16:23;23.48;;;17.38;;
24745;SDS011;12845;52.042;6.838;2022-10-16T19:18:51;40.58;;;30.20;;
24745;SDS011;12845;52.042;6.838;2022-10-16T19:21:19;22.65;;;17.17;;
24745;SDS011;12845;52.042;6.838;2022-10-16T19:23:55;9.27;;;5.60;;
24745;SDS011;12845;52.042;6.838;2022-10-16T19:26:21;7.80;;;4.30;;
24745;SDS011;12845;52.042;6.838;2022-10-16T19:28:49;8.82;;;4.53;;
24745;SDS011;12845;52.042;6.838;2022-10-16T19:31:16;10.73;;;4.93;;
24745;SDS011;12845;52.042;6.838;2022-10-16T19:33:42;9.07;;;4.78;;
24745;SDS011;12845;52.042;6.838;2022-10-16T19:36:15;10.63;;;4.63;;
24745;SDS011;12845;52.042;6.838;2022-10-16T19:38:42;13.75;;;5.95;;
24745;SDS011;12845;52.042;6.838;2022-10-16T19:41:12;11.13;;;6.53;;
24745;SDS011;12845;52.042;6.838;2022-10-16T19:43:39;16.55;;;7.93;;
24745;SDS011;12845;52.042;6.838;2022-10-16T19:46:06;13.45;;;7.72;;
24745;SDS011;12845;52.042;6.838;2022-10-16T19:48:36;14.95;;;7.35;;
24745;SDS011;12845;52.042;6.838;2022-10-16T19:51:02;9.32;;;6.53;;
24745;SDS011;12845;52.042;6.838;2022-10-16T19:53:28;13.52;;;7.20;;
24745;SDS011;12845;52.042;6.838;2022-10-16T19:55:54;11.88;;;8.13;;
24745;SDS011;12845;52.042;6.838;2022-10-16T19:58:20;12.35;;;7.60;;
24745;SDS011;12845;52.042;6.838;2022-10-16T20:00:46;13.57;;;7.72;;
24745;SDS011;12845;52.042;6.838;2022-10-16T20:03:12;22.95;;;14.35;;
24745;SDS011;12845;52.042;6.838;2022-10-16T20:05:37;25.08;;;17.17;;
24745;SDS011;12845;52.042;6.838;2022-10-16T20:08:03;39.83;;;30.50;;
24745;SDS011;12845;52.042;6.838;2022-10-16T20:10:28;42.03;;;27.73;;
24745;SDS011;12845;52.042;6.838;2022-10-16T20:12:53;42.08;;;29.58;;
24745;SDS011;12845;52.042;6.838;2022-10-16T20:15:18;24.67;;;17.08;;
24745;SDS011;12845;52.042;6.838;2022-10-16T20:17:44;12.38;;;9.00;;
24745;SDS011;12845;52.042;6.838;2022-10-16T20:20:09;13.65;;;8.30;;
24745;SDS011;12845;52.042;6.838;2022-10-16T20:22:34;15.10;;;8.23;;
24745;SDS011;12845;52.042;6.838;2022-10-16T20:25:00;15.40;;;8.40;;
24745;SDS011;12845;52.042;6.838;2022-10-16T20:27:25;15.60;;;7.70;;
24745;SDS011;12845;52.042;6.838;2022-10-16T20:29:53;15.20;;;9.32;;
24745;SDS011;12845;52.042;6.838;2022-10-16T20:32:18;14.52;;;9.07;;
24745;SDS011;12845;52.042;6.838;2022-10-16T20:34:44;11.80;;;8.60;;
24745;SDS011;12845;52.042;6.838;2022-10-16T20:37:13;13.73;;;8.68;;
24745;SDS011;12845;52.042;6.838;2022-10-16T20:39:39;11.45;;;8.93;;
24745;SDS011;12845;52.042;6.838;2022-10-16T20:42:04;12.48;;;8.98;;
24745;SDS011;12845;52.042;6.838;2022-10-16T20:44:29;17.30;;;9.43;;
24745;SDS011;12845;52.042;6.838;2022-10-16T20:46:55;21.90;;;10.73;;
24745;SDS011;12845;52.042;6.838;2022-10-16T20:49:20;12.80;;;10.10;;
24745;SDS011;12845;52.042;6.838;2022-10-16T20:51:45;15.90;;;9.68;;
24745;SDS011;12845;52.042;6.838;2022-10-16T20:54:14;15.88;;;10.05;;
24745;SDS011;12845;52.042;6.838;2022-10-16T20:56:39;15.68;;;11.52;;
24745;SDS011;12845;52.042;6.838;2022-10-16T20:59:06;18.38;;;10.93;;
24745;SDS011;12845;52.042;6.838;2022-10-16T21:01:32;18.15;;;12.32;;
24745;SDS011;12845;52.042;6.838;2022-10-16T21:04:00;19.80;;;11.95;;
24745;SDS011;12845;52.042;6.838;2022-10-16T21:06:26;13.43;;;10.88;;
24745;SDS011;12845;52.042;6.838;2022-10-16T21:08:52;17.13;;;12.38;;
24745;SDS011;12845;52.042;6.838;2022-10-16T21:11:18;15.27;;;11.88;;
24745;SDS011;12845;52.042;6.838;2022-10-16T21:13:44;17.10;;;12.23;;